sensor_id;sensor_type;location;lat;lon;timestamp;pressure;altitude;pressure_sealevel;temperature;humidity
35507;BME280;36461;52.018;21.036;2023-05-23T00:01:16;100327.06;;;9.31;74.95
35507;BME280;36461;52.018;21.036;2023-05-23T00:03:45;100327.86;;;9.28;75.08
35507;BME280;36461;52.018;21.036;2023-05-23T00:06:18;100329.29;;;9.26;75.17
35507;BME280;36461;52.018;21.036;2023-05-23T00:08:48;100328.48;;;9.23;75.28
35507;BME280;36461;52.018;21.036;2023-05-23T00:11:17;100324.92;;;9.21;75.42
35507;BME280;36461;52.018;21.036;2023-05-23T00:13:47;100328.43;;;9.19;75.52
35507;BME280;36461;52.018;21.036;2023-05-23T00:16:14;100324.84;;;9.18;75.62
35507;BME280;36461;52.018;21.036;2023-05-23T00:18:43;100328.00;;;9.16;75.94
35507;BME280;36461;52.018;21.036;2023-05-23T00:21:12;100324.92;;;9.14;75.67
35507;BME280;36461;52.018;21.036;2023-05-23T00:23:40;100323.43;;;9.13;76.05
35507;BME280;36461;52.018;21.036;2023-05-23T00:26:11;100324.34;;;9.11;76.22
35507;BME280;36461;52.018;21.036;2023-05-23T00:28:40;100320.79;;;9.08;76.37
35507;BME280;36461;52.018;21.036;2023-05-23T00:31:09;100320.89;;;9.05;76.53
35507;BME280;36461;52.018;21.036;2023-05-23T00:33:37;100317.38;;;9.00;76.47
35507;BME280;36461;52.018;21.036;2023-05-23T00:36:05;100317.67;;;8.96;76.53
35507;BME280;36461;52.018;21.036;2023-05-23T00:38:33;100324.10;;;8.94;76.49
35507;BME280;36461;52.018;21.036;2023-05-23T00:41:01;100323.51;;;8.91;76.67
35507;BME280;36461;52.018;21.036;2023-05-23T00:43:29;100321.52;;;8.87;76.74
35507;BME280;36461;52.018;21.036;2023-05-23T00:45:59;100321.60;;;8.84;76.94
35507;BME280;36461;52.018;21.036;2023-05-23T00:48:28;100322.19;;;8.81;77.07
35507;BME280;36461;52.018;21.036;2023-05-23T00:50:56;100321.20;;;8.79;77.19
35507;BME280;36461;52.018;21.036;2023-05-23T00:53:25;100321.58;;;8.78;77.41
35507;BME280;36461;52.018;21.036;2023-05-23T00:55:53;100319.90;;;8.76;77.32
35507;BME280;36461;52.018;21.036;2023-05-23T00:58:22;100319.65;;;8.72;77.37
35507;BME280;36461;52.018;21.036;2023-05-23T01:00:50;100316.78;;;8.70;77.58
35507;BME280;36461;52.018;21.036;2023-05-23T01:03:21;100319.77;;;8.68;77.69
35507;BME280;36461;52.018;21.036;2023-05-23T01:05:50;100321.35;;;8.66;77.77
35507;BME280;36461;52.018;21.036;2023-05-23T01:08:20;100324.69;;;8.64;77.81
35507;BME280;36461;52.018;21.036;2023-05-23T01:10:49;100320.25;;;8.62;78.00
35507;BME280;36461;52.018;21.036;2023-05-23T01:13:42;100322.38;;;8.61;77.94
35507;BME280;36461;52.018;21.036;2023-05-23T01:19:00;100323.97;;;8.51;78.10
35507;BME280;36461;52.018;21.036;2023-05-23T01:21:35;100329.05;;;8.48;78.33
35507;BME280;36461;52.018;21.036;2023-05-23T01:29:12;100326.56;;;8.36;78.34
35507;BME280;36461;52.018;21.036;2023-05-23T01:31:45;100322.52;;;8.32;78.51
35507;BME280;36461;52.018;21.036;2023-05-23T01:34:17;100325.88;;;8.28;78.68
35507;BME280;36461;52.018;21.036;2023-05-23T01:36:49;100322.63;;;8.27;78.73
35507;BME280;36461;52.018;21.036;2023-05-23T01:39:17;100319.04;;;8.26;78.91
35507;BME280;36461;52.018;21.036;2023-05-23T01:41:45;100317.35;;;8.24;78.98
35507;BME280;36461;52.018;21.036;2023-05-23T01:44:13;100317.57;;;8.22;78.92
35507;BME280;36461;52.018;21.036;2023-05-23T01:46:42;100314.88;;;8.19;78.91
35507;BME280;36461;52.018;21.036;2023-05-23T01:49:12;100312.70;;;8.17;79.07
35507;BME280;36461;52.018;21.036;2023-05-23T01:51:41;100311.71;;;8.15;79.21
35507;BME280;36461;52.018;21.036;2023-05-23T01:54:09;100309.34;;;8.13;79.38
35507;BME280;36461;52.018;21.036;2023-05-23T01:56:39;100307.98;;;8.12;79.50
35507;BME280;36461;52.018;21.036;2023-05-23T01:59:08;100303.88;;;8.10;79.64
35507;BME280;36461;52.018;21.036;2023-05-23T02:01:37;100302.67;;;8.10;79.70
35507;BME280;36461;52.018;21.036;2023-05-23T02:04:05;100298.41;;;8.09;79.78
35507;BME280;36461;52.018;21.036;2023-05-23T02:06:33;100294.48;;;8.06;79.72
35507;BME280;36461;52.018;21.036;2023-05-23T02:09:01;100292.65;;;8.04;79.81
35507;BME280;36461;52.018;21.036;2023-05-23T02:11:31;100291.32;;;8.02;79.99
35507;BME280;36461;52.018;21.036;2023-05-23T02:14:00;100290.86;;;8.00;80.03
35507;BME280;36461;52.018;21.036;2023-05-23T02:16:29;100286.11;;;7.96;80.27
35507;BME280;36461;52.018;21.036;2023-05-23T02:18:57;100287.54;;;7.94;80.21
35507;BME280;36461;52.018;21.036;2023-05-23T02:21:26;100287.44;;;7.91;80.17
35507;BME280;36461;52.018;21.036;2023-05-23T02:23:53;100286.15;;;7.87;80.32
35507;BME280;36461;52.018;21.036;2023-05-23T02:26:22;100288.96;;;7.84;80.40
35507;BME280;36461;52.018;21.036;2023-05-23T02:28:49;100289.87;;;7.82;80.34
35507;BME280;36461;52.018;21.036;2023-05-23T02:31:18;100285.79;;;7.80;80.47
35507;BME280;36461;52.018;21.036;2023-05-23T02:33:46;100280.48;;;7.78;80.56
35507;BME280;36461;52.018;21.036;2023-05-23T02:36:14;100279.80;;;7.77;80.86
35507;BME280;36461;52.018;21.036;2023-05-23T02:38:43;100281.70;;;7.77;80.81
35507;BME280;36461;52.018;21.036;2023-05-23T02:41:12;100279.44;;;7.79;80.98
35507;BME280;36461;52.018;21.036;2023-05-23T02:43:40;100278.60;;;7.78;80.65
35507;BME280;36461;52.018;21.036;2023-05-23T02:46:08;100271.91;;;7.76;80.90
35507;BME280;36461;52.018;21.036;2023-05-23T02:48:36;100271.23;;;7.76;81.10
35507;BME280;36461;52.018;21.036;2023-05-23T02:51:05;100274.83;;;7.77;81.10
35507;BME280;36461;52.018;21.036;2023-05-23T02:53:33;100270.85;;;7.78;81.20
35507;BME280;36461;52.018;21.036;2023-05-23T02:56:01;100270.64;;;7.79;81.31
35507;BME280;36461;52.018;21.036;2023-05-23T02:58:29;100269.23;;;7.81;81.20
35507;BME280;36461;52.018;21.036;2023-05-23T03:00:58;100271.10;;;7.81;81.32
35507;BME280;36461;52.018;21.036;2023-05-23T03:03:26;100271.42;;;7.82;81.34
35507;BME280;36461;52.018;21.036;2023-05-23T03:06:02;100272.41;;;7.85;81.67
35507;BME280;36461;52.018;21.036;2023-05-23T03:08:32;100270.97;;;7.87;81.72
35507;BME280;36461;52.018;21.036;2023-05-23T03:11:00;100271.77;;;7.89;81.71
35507;BME280;36461;52.018;21.036;2023-05-23T03:13:29;100275.70;;;7.92;81.70
35507;BME280;36461;52.018;21.036;2023-05-23T03:15:57;100273.55;;;7.95;81.87
35507;BME280;36461;52.018;21.036;2023-05-23T03:18:26;100275.04;;;7.98;81.96
35507;BME280;36461;52.018;21.036;2023-05-23T03:20:55;100272.17;;;8.02;82.05
35507;BME280;36461;52.018;21.036;2023-05-23T03:23:24;100269.35;;;8.05;81.86
35507;BME280;36461;52.018;21.036;2023-05-23T03:25:52;100272.85;;;8.10;81.98
35507;BME280;36461;52.018;21.036;2023-05-23T03:28:20;100272.63;;;8.13;81.99
35507;BME280;36461;52.018;21.036;2023-05-23T03:30:48;100271.14;;;8.17;82.03
35507;BME280;36461;52.018;21.036;2023-05-23T03:33:17;100273.77;;;8.23;82.18
35507;BME280;36461;52.018;21.036;2023-05-23T03:35:45;100272.47;;;8.27;82.31
35507;BME280;36461;52.018;21.036;2023-05-23T03:38:13;100271.01;;;8.30;82.45
35507;BME280;36461;52.018;21.036;2023-05-23T03:40:41;100271.95;;;8.33;82.45
35507;BME280;36461;52.018;21.036;2023-05-23T03:43:10;100269.58;;;8.38;82.56
35507;BME280;36461;52.018;21.036;2023-05-23T03:45:40;100267.23;;;8.43;82.52
35507;BME280;36461;52.018;21.036;2023-05-23T03:48:12;100273.70;;;8.48;82.73
35507;BME280;36461;52.018;21.036;2023-05-23T03:50:41;100271.02;;;8.52;82.61
35507;BME280;36461;52.018;21.036;2023-05-23T03:53:10;100269.31;;;8.58;82.73
35507;BME280;36461;52.018;21.036;2023-05-23T03:55:38;100270.23;;;8.62;82.98
35507;BME280;36461;52.018;21.036;2023-05-23T03:58:07;100264.20;;;8.68;82.98
35507;BME280;36461;52.018;21.036;2023-05-23T04:00:35;100265.42;;;8.75;83.04
35507;BME280;36461;52.018;21.036;2023-05-23T04:03:06;100261.63;;;8.81;83.31
35507;BME280;36461;52.018;21.036;2023-05-23T04:05:36;100262.45;;;8.89;83.28
35507;BME280;36461;52.018;21.036;2023-05-23T04:08:04;100259.62;;;8.98;83.23
35507;BME280;36461;52.018;21.036;2023-05-23T04:10:32;100254.95;;;9.04;83.26
35507;BME280;36461;52.018;21.036;2023-05-23T04:13:01;100251.74;;;9.14;83.45
35507;BME280;36461;52.018;21.036;2023-05-23T04:15:29;100251.31;;;9.23;83.56
35507;BME280;36461;52.018;21.036;2023-05-23T04:18:02;100250.65;;;9.34;83.56
35507;BME280;36461;52.018;21.036;2023-05-23T04:20:31;100250.55;;;9.43;83.57
35507;BME280;36461;52.018;21.036;2023-05-23T04:22:59;100249.72;;;9.54;83.68
35507;BME280;36461;52.018;21.036;2023-05-23T04:25:29;100252.34;;;9.70;83.72
35507;BME280;36461;52.018;21.036;2023-05-23T04:28:10;100255.04;;;10.06;84.70
35507;BME280;36461;52.018;21.036;2023-05-23T04:30:39;100252.40;;;10.45;84.47
35507;BME280;36461;52.018;21.036;2023-05-23T04:33:07;100252.59;;;10.55;83.05
35507;BME280;36461;52.018;21.036;2023-05-23T04:35:36;100251.54;;;10.55;82.48
35507;BME280;36461;52.018;21.036;2023-05-23T04:38:08;100249.40;;;10.57;82.40
35507;BME280;36461;52.018;21.036;2023-05-23T04:40:37;100247.87;;;10.71;82.84
35507;BME280;36461;52.018;21.036;2023-05-23T04:43:10;100248.21;;;10.86;82.49
35507;BME280;36461;52.018;21.036;2023-05-23T04:53:29;100242.64;;;12.06;84.08
35507;BME280;36461;52.018;21.036;2023-05-23T04:55:58;100241.98;;;12.31;82.03
35507;BME280;36461;52.018;21.036;2023-05-23T04:58:28;100242.54;;;12.55;82.11
35507;BME280;36461;52.018;21.036;2023-05-23T05:00:59;100238.46;;;13.09;81.92
35507;BME280;36461;52.018;21.036;2023-05-23T05:03:28;100237.18;;;13.02;79.84
35507;BME280;36461;52.018;21.036;2023-05-23T05:05:56;100232.62;;;12.84;79.16
35507;BME280;36461;52.018;21.036;2023-05-23T05:08:24;100227.64;;;12.70;79.07
35507;BME280;36461;52.018;21.036;2023-05-23T05:10:56;100229.20;;;12.63;79.14
35507;BME280;36461;52.018;21.036;2023-05-23T05:13:24;100229.20;;;12.91;80.22
35507;BME280;36461;52.018;21.036;2023-05-23T05:15:54;100228.88;;;13.09;79.50
35507;BME280;36461;52.018;21.036;2023-05-23T05:18:27;100230.06;;;13.10;79.06
35507;BME280;36461;52.018;21.036;2023-05-23T05:20:57;100227.34;;;13.05;78.78
35507;BME280;36461;52.018;21.036;2023-05-23T05:23:25;100224.48;;;13.22;79.28
35507;BME280;36461;52.018;21.036;2023-05-23T05:25:57;100221.70;;;13.30;78.61
35507;BME280;36461;52.018;21.036;2023-05-23T05:28:25;100216.30;;;13.22;78.37
35507;BME280;36461;52.018;21.036;2023-05-23T05:30:53;100219.48;;;13.17;78.55
35507;BME280;36461;52.018;21.036;2023-05-23T05:33:22;100219.89;;;13.16;78.50
35507;BME280;36461;52.018;21.036;2023-05-23T05:36:03;100214.38;;;13.16;78.82
35507;BME280;36461;52.018;21.036;2023-05-23T05:38:31;100215.27;;;13.19;79.03
35507;BME280;36461;52.018;21.036;2023-05-23T05:40:59;100216.09;;;13.23;78.84
35507;BME280;36461;52.018;21.036;2023-05-23T05:43:33;100215.99;;;13.30;78.90
35507;BME280;36461;52.018;21.036;2023-05-23T05:46:01;100219.46;;;13.38;78.85
35507;BME280;36461;52.018;21.036;2023-05-23T05:48:30;100218.88;;;13.46;79.05
35507;BME280;36461;52.018;21.036;2023-05-23T05:51:02;100221.56;;;13.56;78.95
35507;BME280;36461;52.018;21.036;2023-05-23T05:53:34;100221.98;;;13.66;78.80
35507;BME280;36461;52.018;21.036;2023-05-23T05:56:02;100218.17;;;13.76;78.69
35507;BME280;36461;52.018;21.036;2023-05-23T05:58:32;100216.73;;;13.88;78.31
35507;BME280;36461;52.018;21.036;2023-05-23T06:01:03;100214.45;;;14.00;78.15
35507;BME280;36461;52.018;21.036;2023-05-23T06:03:32;100211.46;;;14.11;77.88
35507;BME280;36461;52.018;21.036;2023-05-23T06:06:01;100214.38;;;14.22;78.11
35507;BME280;36461;52.018;21.036;2023-05-23T06:08:29;100214.67;;;14.30;78.16
35507;BME280;36461;52.018;21.036;2023-05-23T06:10:57;100211.53;;;14.37;77.76
35507;BME280;36461;52.018;21.036;2023-05-23T06:13:25;100206.36;;;14.47;77.57
35507;BME280;36461;52.018;21.036;2023-05-23T06:15:54;100205.73;;;14.59;77.73
35507;BME280;36461;52.018;21.036;2023-05-23T06:18:22;100204.13;;;14.70;78.22
35507;BME280;36461;52.018;21.036;2023-05-23T06:20:51;100201.52;;;14.80;78.16
35507;BME280;36461;52.018;21.036;2023-05-23T06:23:20;100201.46;;;14.91;78.11
35507;BME280;36461;52.018;21.036;2023-05-23T06:25:49;100195.27;;;15.03;77.68
35507;BME280;36461;52.018;21.036;2023-05-23T06:28:17;100197.21;;;15.15;77.25
35507;BME280;36461;52.018;21.036;2023-05-23T06:30:45;100194.59;;;15.28;76.98
35507;BME280;36461;52.018;21.036;2023-05-23T06:33:15;100196.80;;;15.42;75.84
35507;BME280;36461;52.018;21.036;2023-05-23T06:35:43;100191.45;;;15.56;74.90
35507;BME280;36461;52.018;21.036;2023-05-23T06:38:11;100187.70;;;15.73;75.22
35507;BME280;36461;52.018;21.036;2023-05-23T06:40:39;100179.39;;;15.88;75.13
35507;BME280;36461;52.018;21.036;2023-05-23T06:43:09;100182.16;;;16.04;74.56
35507;BME280;36461;52.018;21.036;2023-05-23T06:45:45;100178.79;;;16.17;74.42
35507;BME280;36461;52.018;21.036;2023-05-23T06:48:16;100171.20;;;16.27;73.65
35507;BME280;36461;52.018;21.036;2023-05-23T06:50:45;100171.49;;;16.37;73.07
35507;BME280;36461;52.018;21.036;2023-05-23T06:53:13;100174.05;;;16.47;72.72
35507;BME280;36461;52.018;21.036;2023-05-23T06:55:46;100169.89;;;16.55;71.98
35507;BME280;36461;52.018;21.036;2023-05-23T06:58:15;100170.02;;;16.65;71.41
35507;BME280;36461;52.018;21.036;2023-05-23T07:00:44;100167.48;;;16.77;71.59
35507;BME280;36461;52.018;21.036;2023-05-23T07:03:22;100165.75;;;16.86;71.07
35507;BME280;36461;52.018;21.036;2023-05-23T07:05:50;100161.05;;;16.94;70.73
35507;BME280;36461;52.018;21.036;2023-05-23T07:08:20;100157.21;;;17.06;70.97
35507;BME280;36461;52.018;21.036;2023-05-23T07:10:59;100157.61;;;17.16;69.86
35507;BME280;36461;52.018;21.036;2023-05-23T07:13:37;100159.61;;;17.28;69.66
35507;BME280;36461;52.018;21.036;2023-05-23T07:16:05;100158.52;;;17.40;69.17
35507;BME280;36461;52.018;21.036;2023-05-23T07:18:35;100156.98;;;17.48;67.15
35507;BME280;36461;52.018;21.036;2023-05-23T07:21:05;100151.75;;;17.58;66.32
35507;BME280;36461;52.018;21.036;2023-05-23T07:23:33;100149.60;;;17.70;66.05
35507;BME280;36461;52.018;21.036;2023-05-23T07:26:02;100150.36;;;17.80;65.84
35507;BME280;36461;52.018;21.036;2023-05-23T07:28:47;100148.31;;;17.89;66.04
35507;BME280;36461;52.018;21.036;2023-05-23T07:31:15;100142.76;;;17.94;64.52
35507;BME280;36461;52.018;21.036;2023-05-23T07:33:44;100145.67;;;18.03;64.71
35507;BME280;36461;52.018;21.036;2023-05-23T07:36:16;100140.48;;;18.18;62.91
35507;BME280;36461;52.018;21.036;2023-05-23T07:38:44;100138.20;;;18.29;62.30
35507;BME280;36461;52.018;21.036;2023-05-23T07:41:13;100134.36;;;18.36;61.61
35507;BME280;36461;52.018;21.036;2023-05-23T07:43:42;100131.42;;;18.46;61.56
35507;BME280;36461;52.018;21.036;2023-05-23T07:46:10;100129.09;;;18.54;60.54
35507;BME280;36461;52.018;21.036;2023-05-23T07:48:38;100129.87;;;18.66;60.49
35507;BME280;36461;52.018;21.036;2023-05-23T07:51:06;100127.27;;;18.77;60.00
35507;BME280;36461;52.018;21.036;2023-05-23T07:53:34;100122.48;;;18.88;59.23
35507;BME280;36461;52.018;21.036;2023-05-23T07:56:09;100117.39;;;18.99;58.71
35507;BME280;36461;52.018;21.036;2023-05-23T07:58:39;100116.67;;;19.08;57.98
35507;BME280;36461;52.018;21.036;2023-05-23T08:01:07;100117.98;;;19.20;56.81
35507;BME280;36461;52.018;21.036;2023-05-23T08:03:54;100114.69;;;19.34;55.97
35507;BME280;36461;52.018;21.036;2023-05-23T08:06:28;100114.52;;;19.46;55.50
35507;BME280;36461;52.018;21.036;2023-05-23T08:08:57;100116.88;;;19.56;54.76
35507;BME280;36461;52.018;21.036;2023-05-23T08:11:27;100110.30;;;19.67;54.04
35507;BME280;36461;52.018;21.036;2023-05-23T08:13:57;100110.45;;;19.77;53.72
35507;BME280;36461;52.018;21.036;2023-05-23T08:16:37;100108.09;;;19.85;53.38
35507;BME280;36461;52.018;21.036;2023-05-23T08:19:13;100105.79;;;19.95;54.22
35507;BME280;36461;52.018;21.036;2023-05-23T08:21:41;100102.45;;;20.02;53.50
35507;BME280;36461;52.018;21.036;2023-05-23T08:24:09;100100.90;;;20.08;52.52
35507;BME280;36461;52.018;21.036;2023-05-23T08:26:42;100098.38;;;20.21;51.31
35507;BME280;36461;52.018;21.036;2023-05-23T08:29:12;100093.99;;;20.34;51.60
35507;BME280;36461;52.018;21.036;2023-05-23T08:31:41;100095.34;;;20.44;51.51
35507;BME280;36461;52.018;21.036;2023-05-23T08:34:10;100095.98;;;20.52;50.99
35507;BME280;36461;52.018;21.036;2023-05-23T08:36:39;100090.80;;;20.57;50.86
35507;BME280;36461;52.018;21.036;2023-05-23T08:39:13;100091.95;;;20.65;50.81
35507;BME280;36461;52.018;21.036;2023-05-23T08:41:56;100087.46;;;20.71;49.85
35507;BME280;36461;52.018;21.036;2023-05-23T08:44:24;100090.98;;;20.73;49.57
35507;BME280;36461;52.018;21.036;2023-05-23T08:46:59;100084.31;;;20.75;48.60
35507;BME280;36461;52.018;21.036;2023-05-23T08:49:47;100080.80;;;20.86;48.50
35507;BME280;36461;52.018;21.036;2023-05-23T08:52:17;100082.91;;;21.00;47.73
35507;BME280;36461;52.018;21.036;2023-05-23T08:54:50;100083.29;;;21.12;47.23
35507;BME280;36461;52.018;21.036;2023-05-23T08:57:20;100082.41;;;21.32;46.93
35507;BME280;36461;52.018;21.036;2023-05-23T08:59:52;100081.33;;;21.62;46.25
35507;BME280;36461;52.018;21.036;2023-05-23T09:02:22;100075.02;;;21.85;45.56
35507;BME280;36461;52.018;21.036;2023-05-23T09:04:54;100069.27;;;21.99;44.77
35507;BME280;36461;52.018;21.036;2023-05-23T09:07:27;100073.79;;;22.06;44.72
35507;BME280;36461;52.018;21.036;2023-05-23T09:09:57;100073.46;;;22.08;44.45
35507;BME280;36461;52.018;21.036;2023-05-23T09:12:25;100079.17;;;22.07;43.56
35507;BME280;36461;52.018;21.036;2023-05-23T09:14:53;100075.66;;;21.96;43.22
35507;BME280;36461;52.018;21.036;2023-05-23T09:17:24;100073.48;;;21.91;43.33
35507;BME280;36461;52.018;21.036;2023-05-23T09:19:53;100068.52;;;21.95;43.31
35507;BME280;36461;52.018;21.036;2023-05-23T09:22:36;100068.78;;;22.07;43.30
35507;BME280;36461;52.018;21.036;2023-05-23T09:25:12;100067.88;;;22.21;42.96
35507;BME280;36461;52.018;21.036;2023-05-23T09:27:42;100070.12;;;22.35;42.77
35507;BME280;36461;52.018;21.036;2023-05-23T09:30:15;100060.55;;;22.45;42.06
35507;BME280;36461;52.018;21.036;2023-05-23T09:32:58;100059.58;;;22.53;42.13
35507;BME280;36461;52.018;21.036;2023-05-23T09:35:32;100058.76;;;22.56;41.68
35507;BME280;36461;52.018;21.036;2023-05-23T09:38:00;100053.80;;;22.58;41.53
35507;BME280;36461;52.018;21.036;2023-05-23T09:40:30;100057.24;;;22.63;41.73
35507;BME280;36461;52.018;21.036;2023-05-23T09:43:03;100054.24;;;22.67;41.03
35507;BME280;36461;52.018;21.036;2023-05-23T09:45:33;100054.20;;;22.72;40.78
35507;BME280;36461;52.018;21.036;2023-05-23T09:48:01;100049.95;;;22.78;40.65
35507;BME280;36461;52.018;21.036;2023-05-23T09:50:31;100049.53;;;22.83;40.43
35507;BME280;36461;52.018;21.036;2023-05-23T09:53:01;100048.27;;;22.85;40.87
35507;BME280;36461;52.018;21.036;2023-05-23T09:55:29;100041.95;;;22.97;40.61
35507;BME280;36461;52.018;21.036;2023-05-23T09:57:58;100043.95;;;23.02;40.31
35507;BME280;36461;52.018;21.036;2023-05-23T10:00:27;100047.19;;;23.05;40.54
35507;BME280;36461;52.018;21.036;2023-05-23T10:03:17;100045.70;;;23.12;40.23
35507;BME280;36461;52.018;21.036;2023-05-23T10:05:46;100051.02;;;23.18;39.82
35507;BME280;36461;52.018;21.036;2023-05-23T10:08:24;100048.41;;;23.33;39.72
35507;BME280;36461;52.018;21.036;2023-05-23T10:13:26;100054.30;;;23.73;39.40
35507;BME280;36461;52.018;21.036;2023-05-23T10:15:58;100049.02;;;23.86;38.39
35507;BME280;36461;52.018;21.036;2023-05-23T10:18:33;100051.23;;;24.02;38.02
35507;BME280;36461;52.018;21.036;2023-05-23T10:21:11;100049.44;;;24.25;37.66
35507;BME280;36461;52.018;21.036;2023-05-23T10:23:41;100046.36;;;24.48;37.36
35507;BME280;36461;52.018;21.036;2023-05-23T10:26:10;100042.88;;;24.66;36.47
35507;BME280;36461;52.018;21.036;2023-05-23T10:28:39;100040.30;;;24.82;36.16
35507;BME280;36461;52.018;21.036;2023-05-23T10:31:10;100041.04;;;24.90;37.17
35507;BME280;36461;52.018;21.036;2023-05-23T10:33:42;100044.00;;;24.94;37.16
35507;BME280;36461;52.018;21.036;2023-05-23T10:36:33;100043.89;;;25.01;36.94
35507;BME280;36461;52.018;21.036;2023-05-23T10:39:08;100039.16;;;25.06;35.94
35507;BME280;36461;52.018;21.036;2023-05-23T10:41:50;100035.18;;;25.07;35.06
35507;BME280;36461;52.018;21.036;2023-05-23T10:44:28;100035.41;;;25.19;35.24
35507;BME280;36461;52.018;21.036;2023-05-23T10:46:59;100035.77;;;25.22;35.31
35507;BME280;36461;52.018;21.036;2023-05-23T10:49:44;100031.89;;;25.10;35.14
35507;BME280;36461;52.018;21.036;2023-05-23T10:52:15;100029.77;;;24.93;35.33
35507;BME280;36461;52.018;21.036;2023-05-23T10:54:47;100029.66;;;24.80;35.30
35507;BME280;36461;52.018;21.036;2023-05-23T10:57:16;100032.06;;;24.72;35.25
35507;BME280;36461;52.018;21.036;2023-05-23T10:59:46;100033.70;;;24.73;35.41
35507;BME280;36461;52.018;21.036;2023-05-23T11:02:25;100031.75;;;24.75;35.10
35507;BME280;36461;52.018;21.036;2023-05-23T11:05:30;100031.30;;;24.76;35.26
35507;BME280;36461;52.018;21.036;2023-05-23T11:08:22;100025.88;;;24.75;34.90
35507;BME280;36461;52.018;21.036;2023-05-23T11:11:03;100021.50;;;24.71;34.97
35507;BME280;36461;52.018;21.036;2023-05-23T11:21:51;100014.84;;;24.89;34.10
35507;BME280;36461;52.018;21.036;2023-05-23T11:24:20;100012.45;;;25.06;33.71
35507;BME280;36461;52.018;21.036;2023-05-23T11:26:57;100007.77;;;25.28;33.92
35507;BME280;36461;52.018;21.036;2023-05-23T11:29:30;100003.66;;;25.53;33.49
35507;BME280;36461;52.018;21.036;2023-05-23T11:31:58;99999.73;;;25.75;33.50
35507;BME280;36461;52.018;21.036;2023-05-23T11:34:26;99993.83;;;25.92;32.96
35507;BME280;36461;52.018;21.036;2023-05-23T11:36:55;99994.50;;;26.03;32.86
35507;BME280;36461;52.018;21.036;2023-05-23T11:39:23;99992.65;;;26.11;32.20
35507;BME280;36461;52.018;21.036;2023-05-23T11:41:58;99990.09;;;26.13;32.18
35507;BME280;36461;52.018;21.036;2023-05-23T11:44:27;99989.05;;;26.20;32.74
35507;BME280;36461;52.018;21.036;2023-05-23T11:47:03;99981.63;;;26.22;32.67
35507;BME280;36461;52.018;21.036;2023-05-23T11:49:34;99979.73;;;26.14;32.17
35507;BME280;36461;52.018;21.036;2023-05-23T11:52:04;99980.99;;;26.07;32.31
35507;BME280;36461;52.018;21.036;2023-05-23T11:54:36;99987.25;;;25.94;32.02
35507;BME280;36461;52.018;21.036;2023-05-23T11:57:04;99987.36;;;25.81;32.38
35507;BME280;36461;52.018;21.036;2023-05-23T11:59:32;99989.94;;;25.72;32.16
35507;BME280;36461;52.018;21.036;2023-05-23T12:02:02;99987.59;;;25.67;32.35
35507;BME280;36461;52.018;21.036;2023-05-23T12:04:30;99981.83;;;25.71;32.58
35507;BME280;36461;52.018;21.036;2023-05-23T12:06:58;99981.11;;;25.80;32.91
35507;BME280;36461;52.018;21.036;2023-05-23T12:09:26;99976.71;;;25.85;32.56
35507;BME280;36461;52.018;21.036;2023-05-23T12:11:54;99975.24;;;25.78;32.00
35507;BME280;36461;52.018;21.036;2023-05-23T12:14:22;99979.36;;;25.82;31.92
35507;BME280;36461;52.018;21.036;2023-05-23T12:16:51;99982.75;;;25.83;31.97
35507;BME280;36461;52.018;21.036;2023-05-23T12:19:19;99971.60;;;25.91;32.26
35507;BME280;36461;52.018;21.036;2023-05-23T12:21:48;99972.55;;;26.01;32.38
35507;BME280;36461;52.018;21.036;2023-05-23T12:24:18;99970.69;;;26.07;32.23
35507;BME280;36461;52.018;21.036;2023-05-23T12:26:48;99971.27;;;26.09;31.52
35507;BME280;36461;52.018;21.036;2023-05-23T12:29:30;99972.45;;;26.09;31.54
35507;BME280;36461;52.018;21.036;2023-05-23T12:32:03;99964.10;;;26.01;31.37
35507;BME280;36461;52.018;21.036;2023-05-23T12:34:32;99967.80;;;25.89;32.02
35507;BME280;36461;52.018;21.036;2023-05-23T12:37:00;99963.72;;;25.87;32.42
35507;BME280;36461;52.018;21.036;2023-05-23T12:39:35;99963.64;;;25.96;32.24
35507;BME280;36461;52.018;21.036;2023-05-23T12:49:42;99953.88;;;26.78;32.61
35507;BME280;36461;52.018;21.036;2023-05-23T12:52:13;99953.11;;;26.87;32.53
35507;BME280;36461;52.018;21.036;2023-05-23T12:54:41;99951.27;;;26.89;32.85
35507;BME280;36461;52.018;21.036;2023-05-23T12:57:09;99951.20;;;26.94;32.12
35507;BME280;36461;52.018;21.036;2023-05-23T12:59:37;99943.67;;;27.10;31.71
35507;BME280;36461;52.018;21.036;2023-05-23T13:02:05;99942.39;;;27.26;31.24
35507;BME280;36461;52.018;21.036;2023-05-23T13:04:33;99936.62;;;27.34;31.61
35507;BME280;36461;52.018;21.036;2023-05-23T13:07:01;99939.43;;;27.38;31.06
35507;BME280;36461;52.018;21.036;2023-05-23T13:09:30;99940.76;;;27.42;31.31
35507;BME280;36461;52.018;21.036;2023-05-23T13:11:58;99935.20;;;27.49;31.40
35507;BME280;36461;52.018;21.036;2023-05-23T13:14:26;99923.25;;;27.46;30.35
35507;BME280;36461;52.018;21.036;2023-05-23T13:16:54;99919.86;;;27.35;30.96
35507;BME280;36461;52.018;21.036;2023-05-23T13:19:22;99924.27;;;27.22;31.55
35507;BME280;36461;52.018;21.036;2023-05-23T13:21:50;99926.58;;;27.05;31.52
35507;BME280;36461;52.018;21.036;2023-05-23T13:24:19;99927.14;;;26.82;32.03
35507;BME280;36461;52.018;21.036;2023-05-23T13:26:48;99928.70;;;26.66;31.84
35507;BME280;36461;52.018;21.036;2023-05-23T13:29:16;99927.28;;;26.47;31.42
35507;BME280;36461;52.018;21.036;2023-05-23T13:31:44;99929.33;;;26.35;31.25
35507;BME280;36461;52.018;21.036;2023-05-23T13:34:14;99929.80;;;26.27;31.49
35507;BME280;36461;52.018;21.036;2023-05-23T13:36:42;99927.23;;;26.19;32.18